Stoney Fork, KY (40988)

12:03 AM EDT on July 06, 2015 (GMT -0400)
APRSWXNET | | Change Station
CLOSE
Current Station
Personal Weather Station
Location: Harrogate, TN
Elevation: 1085 ft
Nearby Weather Stations
Active Advisory: Flash Flood Watch Active Notice: Local Storm Report

Elev 1085 ft 36.66 °N, 83.66 °W | Updated 27 minutes ago

Mostly Cloudy
Mostly Cloudy
69 °F
Feels Like 69 °F
N
0
Wind Variable Wind from East
Gusts 0.0 mph

Today
High -- | Low -- °F
--% Chance of Precip.
Yesterday
High -- | Low -- °F
Precip. -- in
6:20 AM 8:56 PM
Waning Gibbous, 79% visible
Pressure 30.12 in
Visibility 10.0 miles
Clouds Scattered Clouds 2100 ft
Scattered Clouds 12000 ft
Dew Point 68 °F
Humidity 96%
Rainfall in
Snow Depth Not available.
UV 0 out of 12
Pollen .50 out of 12
Air Quality Not available.
Flu Activity Not available.
METAR K1A6 060355Z AUTO 00000KT 10SM SCT021 SCT120 20/19 A3012 RMK AO2 T01960192

More Conditions Fewer Conditions

Pressure 30.12 in
Visibility 10.0 miles
Clouds Scattered Clouds 2100 ft
Scattered Clouds 12000 ft
Dew Point 68 °F
Humidity 96%
Rainfall in
Snow Depth Not available.
UV 0 out of 12
Pollen .50 out of 12
Air Quality Not available.
Flu Activity Not available.
METAR K1A6 060355Z AUTO 00000KT 10SM SCT021 SCT120 20/19 A3012 RMK AO2 T01960192

More Conditions Fewer Conditions

10-Day Weather Forecast

×

Almanac

Astronomy

Jul. 06, 2015 Rise Set
Actual Time
Civil Twilight
Nautical Twilight
Astronomical Twilight
Moon
Length of Visible Light
Length of Day
Tomorrow will be .
, % of the Moon is Illuminated

Today's Extremes

State Highs State Lows

Community

WunderPhotos

Upload Photos

1,835,478 photos uploaded!

WunderBlogs® & News

Nearby

Air Quality

  Air Quality AQ Index Pollutant
Not available.

Snow Depth

Station Depth Elevation

Earthquake Activity

City Distance Mag. Time & Date
Minimum magnitude displayed is 2.5.

Coastal Water Temperatures

Place Temperature

Stations

Nearby Weather Stations

Station Location Temp. Windchill Dew Point Humidity Wind Precip. Elev Updated Type
                   
Flash Flood Watch
Statement as of 8:04 PM EDT on July 05, 2015

... Flash Flood Watch remains in effect until 6 am EDT Monday...

The Flash Flood Watch continues for

* portions of northeast Kentucky and southeast Kentucky...
including the following areas... in northeast Kentucky...
Johnson... and Martin. In southeast Kentucky... Bell...
Breathitt... Floyd... Harlan... Knott... Leslie... Letcher...
Magoffin... Perry... and Pike.

* Until 6 am EDT Monday

* slow moving showers and thunderstorms are expected to bring
locally heavy rainfall on top of already wet ground. This will
result in a threat of flash flooding across the area.

Precautionary/preparedness actions...

A Flash Flood Watch means that conditions may develop that lead
to flash flooding. Flash flooding is a very dangerous situation.

You should monitor later forecasts and be prepared to take action
should flash flood warnings be issued.



Geogerian